createdAt,value
2022-09-20T00:00:44.368Z,86.06
2022-09-20T00:01:44.443Z,86.06
2022-09-20T00:02:44.310Z,86.06
2022-09-20T00:03:44.296Z,85.55
2022-09-20T00:04:44.311Z,86.16
2022-09-20T00:05:44.277Z,86.26
2022-09-20T00:06:44.256Z,86.47
2022-09-20T00:07:44.262Z,86.88
2022-09-20T00:08:44.232Z,86.77
2022-09-20T00:09:44.218Z,86.47
2022-09-20T00:10:44.229Z,85.75
2022-09-20T00:11:44.219Z,87.23
2022-09-20T00:12:44.229Z,87.02
2022-09-20T00:13:44.217Z,86.10
2022-09-20T00:14:44.174Z,86.10
2022-09-20T00:15:44.165Z,87.02
2022-09-20T00:16:44.232Z,86.91
2022-09-20T00:17:44.139Z,85.89
2022-09-20T00:18:44.116Z,89.67
2022-09-20T00:19:44.110Z,87.53
2022-09-20T00:20:44.094Z,87.32
2022-09-20T00:21:44.119Z,88.35
2022-09-20T00:22:44.079Z,86.10
2022-09-20T00:23:44.073Z,86.10
2022-09-20T00:24:48.792Z,87.02
2022-09-20T00:25:44.054Z,88.76
2022-09-20T00:26:44.046Z,88.24
2022-09-20T00:27:44.042Z,88.14
2022-09-20T00:28:44.028Z,86.71
2022-09-20T00:29:44.010Z,88.04
2022-09-20T00:30:44.006Z,87.94
2022-09-20T00:31:44.044Z,86.82
2022-09-20T00:32:43.973Z,87.32
2022-09-20T00:33:43.965Z,86.55
2022-09-20T00:34:43.959Z,87.98
2022-09-20T00:35:43.940Z,87.06
2022-09-20T00:36:43.928Z,87.88
2022-09-20T00:37:43.917Z,86.85
2022-09-20T00:38:43.901Z,87.47
2022-09-20T00:39:43.899Z,87.16
2022-09-20T00:40:43.939Z,87.16
2022-09-20T00:41:43.902Z,87.16
2022-09-20T00:42:43.859Z,86.85
2022-09-20T00:43:43.853Z,88.49
2022-09-20T00:44:43.837Z,87.77
2022-09-20T00:45:43.884Z,87.57
2022-09-20T00:46:43.820Z,87.57
2022-09-20T00:47:43.837Z,87.67
2022-09-20T00:48:43.798Z,87.16
2022-09-20T00:49:43.792Z,86.96
2022-09-20T00:50:43.773Z,88.79
2022-09-20T00:51:43.800Z,87.98
2022-09-20T00:52:43.750Z,88.08
2022-09-20T00:53:43.745Z,88.08
2022-09-20T00:54:43.732Z,87.98
2022-09-20T00:55:43.727Z,87.67
2022-09-20T00:56:43.730Z,87.47
2022-09-20T00:57:43.698Z,87.77
2022-09-20T00:58:43.699Z,88.79
2022-09-20T00:59:43.695Z,89.20
2022-09-20T01:00:43.744Z,88.39
2022-09-20T01:01:43.742Z,87.88
2022-09-20T01:02:43.718Z,88.59
2022-09-20T01:03:43.651Z,88.79
2022-09-20T01:04:43.644Z,87.47
2022-09-20T01:05:43.618Z,88.39
2022-09-20T01:06:43.606Z,88.33
2022-09-20T01:07:43.592Z,88.74
2022-09-20T01:08:43.580Z,89.04
2022-09-20T01:09:43.567Z,88.33
2022-09-20T05:01:08.674Z,89.76
2022-09-20T05:02:09.609Z,89.56
2022-09-20T05:03:09.486Z,89.66
2022-09-20T05:04:09.507Z,89.66
2022-09-20T05:05:09.460Z,89.66
2022-09-20T05:06:09.460Z,89.25
2022-09-20T05:07:09.436Z,89.36
2022-09-20T05:08:09.447Z,89.97
2022-09-20T05:09:09.675Z,90.48
2022-09-20T05:10:09.408Z,90.89
2022-09-20T05:11:09.391Z,90.28
2022-09-20T05:12:09.398Z,89.97
2022-09-20T05:13:09.373Z,89.87
2022-09-20T05:14:09.385Z,90.99
2022-09-20T05:15:09.359Z,91.09
2022-09-20T05:16:15.398Z,91.40
2022-09-20T05:17:09.414Z,91.20
2022-09-20T05:18:09.352Z,90.58
2022-09-20T05:19:09.313Z,90.95
2022-09-20T05:20:09.322Z,90.84
2022-09-20T05:21:09.290Z,89.83
2022-09-20T05:22:10.269Z,91.36
2022-09-20T05:23:09.305Z,90.75
2022-09-20T05:24:10.823Z,90.84
2022-09-20T05:25:09.259Z,92.18
2022-09-20T05:26:09.243Z,91.16
2022-09-20T05:27:09.254Z,90.84
2022-09-20T05:28:09.231Z,91.87
2022-09-20T05:29:09.203Z,92.44
2022-09-20T05:30:09.207Z,92.03
2022-09-20T05:31:09.189Z,92.85
2022-09-20T05:32:09.252Z,90.50
2022-09-20T05:33:09.165Z,90.50
2022-09-20T05:34:09.154Z,90.30
2022-09-20T05:35:09.147Z,91.83
2022-09-20T05:36:09.142Z,91.01
2022-09-20T05:37:09.125Z,91.22
2022-09-20T05:38:09.136Z,92.14
2022-09-20T05:39:09.099Z,90.39
2022-09-20T05:40:09.142Z,91.93
2022-09-20T05:41:09.081Z,89.98
2022-09-20T05:42:09.068Z,89.98
2022-09-20T05:43:09.063Z,90.39
2022-09-20T05:44:09.073Z,92.34
2022-09-20T05:45:09.038Z,89.98
2022-09-20T05:46:09.071Z,91.11
2022-09-20T05:47:09.018Z,91.63
2022-09-20T05:48:09.007Z,90.60
2022-09-20T05:49:15.041Z,90.09
2022-09-20T05:50:08.988Z,90.05
2022-09-20T05:51:14.983Z,91.27
2022-09-20T05:52:15.002Z,89.94
2022-09-20T05:54:25.227Z,89.84
2022-09-20T05:55:26.174Z,89.23
2022-09-20T05:56:26.181Z,89.74
2022-09-20T05:57:26.171Z,89.64
2022-09-20T05:58:26.135Z,89.53
2022-09-20T05:59:26.152Z,89.12
2022-09-20T06:00:26.122Z,89.53
2022-09-20T06:01:26.183Z,91.07
2022-09-20T06:02:26.133Z,89.33
2022-09-20T06:03:26.101Z,90.86
2022-09-20T06:04:26.109Z,89.94
2022-09-20T06:05:26.100Z,89.84
2022-09-20T06:06:30.349Z,89.64
2022-09-20T06:07:26.058Z,89.39
2022-09-20T06:08:26.076Z,88.88
2022-09-20T06:09:26.022Z,88.98
2022-09-20T06:10:26.043Z,90.31
2022-09-20T06:11:26.020Z,89.80
2022-09-20T06:12:26.010Z,89.90
2022-09-20T06:13:26.008Z,89.59
2022-09-20T06:14:25.968Z,88.06
2022-09-20T06:15:25.957Z,88.06
2022-09-20T06:16:25.971Z,88.26
2022-09-20T06:17:25.961Z,89.70
2022-09-20T06:18:25.948Z,90.41
2022-09-20T06:19:25.920Z,89.59
2022-09-20T06:20:25.904Z,88.47
2022-09-20T06:21:25.908Z,89.29
2022-09-20T06:22:25.905Z,88.26
2022-09-20T06:23:25.874Z,87.96
2022-09-20T06:24:25.860Z,89.50
2022-09-20T06:25:25.866Z,88.68
2022-09-20T06:26:25.847Z,88.98
2022-09-20T06:27:25.842Z,89.09
2022-09-20T06:28:25.830Z,89.65
2022-09-20T06:29:25.812Z,89.50
2022-09-20T06:30:25.848Z,88.64
2022-09-20T06:31:25.797Z,88.84
2022-09-20T06:32:25.784Z,88.23
2022-09-20T06:33:25.777Z,88.64
2022-09-20T06:34:25.773Z,87.92
2022-09-20T06:35:25.769Z,88.43
2022-09-20T06:36:25.739Z,87.41
2022-09-20T06:37:25.736Z,87.61
2022-09-20T06:38:25.739Z,87.92
2022-09-20T06:39:25.723Z,87.10
2022-09-20T06:40:25.825Z,89.45
2022-09-20T06:41:25.685Z,88.43
2022-09-20T06:42:27.302Z,87.61
2022-09-20T06:43:25.668Z,88.84
2022-09-20T06:44:25.680Z,90.27
2022-09-20T06:45:25.647Z,87.10
2022-09-20T06:46:25.633Z,89.00
2022-09-20T06:47:25.631Z,89.61
2022-09-20T06:48:25.639Z,87.67
2022-09-20T06:49:25.611Z,87.16
2022-09-20T06:50:25.605Z,88.18
2022-09-20T06:51:25.575Z,86.44
2022-09-20T06:52:25.565Z,86.65
2022-09-20T06:53:25.557Z,86.14
2022-09-20T06:54:25.554Z,86.24
2022-09-20T06:55:28.974Z,89.72
2022-09-20T06:56:25.527Z,87.16
2022-09-20T06:57:25.516Z,89.00
2022-09-20T06:58:25.526Z,87.73
2022-09-20T06:59:25.491Z,88.35
2022-09-20T07:00:25.506Z,86.30
2022-09-20T07:01:30.560Z,85.49
2022-09-20T07:02:25.497Z,85.08
2022-09-20T07:03:25.448Z,86.20
2022-09-20T07:04:25.456Z,86.51
2022-09-20T07:05:25.433Z,85.79
2022-09-20T07:06:25.438Z,86.00
2022-09-20T07:07:25.420Z,85.79
2022-09-20T07:08:25.399Z,86.71
2022-09-20T07:09:25.405Z,85.08
2022-09-20T07:10:25.375Z,87.43
2022-09-20T07:11:25.365Z,86.10
2022-09-20T07:12:25.363Z,85.89
2022-09-20T07:13:25.349Z,85.59
2022-09-20T07:14:25.336Z,86.00
2022-09-20T07:15:25.327Z,85.49
2022-09-20T07:16:25.350Z,85.59
2022-09-20T07:17:25.296Z,84.88
2022-09-20T07:18:25.302Z,84.06
2022-09-20T07:19:25.287Z,85.08
2022-09-20T07:20:25.268Z,85.79
2022-09-20T07:21:25.255Z,86.10
2022-09-20T07:22:25.254Z,85.28
2022-09-20T07:23:25.235Z,85.24
2022-09-20T07:24:25.246Z,84.83
2022-09-20T07:25:25.211Z,86.67
2022-09-20T07:26:25.208Z,85.86
2022-09-20T07:27:29.090Z,84.53
2022-09-20T07:28:25.189Z,85.55
2022-09-20T07:29:25.180Z,84.12
2022-09-20T07:30:25.159Z,85.45
2022-09-20T07:31:25.187Z,84.22
2022-09-20T07:32:25.141Z,84.83
2022-09-20T07:33:25.125Z,85.75
2022-09-20T07:34:25.136Z,84.83
2022-09-20T07:35:25.105Z,84.22
2022-09-20T07:36:25.099Z,87.38
2022-09-20T07:37:25.084Z,84.53
2022-09-20T07:38:25.113Z,84.74
2022-09-20T07:39:25.058Z,85.86
2022-09-20T07:40:25.108Z,84.22
2022-09-20T07:41:25.051Z,84.42
2022-09-20T07:42:25.040Z,84.01
2022-09-20T07:43:25.032Z,84.18
2022-09-20T07:44:25.015Z,83.67
2022-09-20T07:45:25.017Z,83.47
2022-09-20T07:46:24.992Z,84.28
2022-09-20T07:47:24.979Z,83.47
2022-09-20T07:48:24.980Z,86.33
2022-09-20T07:49:24.970Z,84.08
2022-09-20T07:50:24.964Z,84.49
2022-09-20T07:51:24.950Z,83.16
2022-09-20T07:52:24.933Z,82.45
2022-09-20T07:53:24.926Z,82.75
2022-09-20T07:54:24.904Z,84.18
2022-09-20T07:55:24.891Z,85.37
2022-09-20T07:56:24.895Z,83.43
2022-09-20T07:57:24.866Z,86.18
2022-09-20T07:58:24.872Z,84.14
2022-09-20T07:59:24.856Z,83.02
2022-09-20T08:00:24.842Z,81.59
2022-09-20T08:01:24.884Z,82.00
2022-09-20T08:02:24.910Z,82.10
2022-09-20T08:03:24.808Z,81.29
2022-09-20T08:04:24.810Z,80.78
2022-09-20T08:05:24.785Z,84.34
2022-09-20T08:06:24.777Z,81.90
2022-09-20T08:07:24.768Z,81.18
2022-09-20T08:08:24.778Z,81.90
2022-09-20T08:09:24.773Z,81.70
2022-09-20T08:10:24.743Z,80.88
2022-09-20T08:11:27.745Z,81.18
2022-09-20T08:14:24.702Z,81.86
2022-09-20T08:15:24.683Z,80.94
2022-09-20T08:16:24.710Z,79.62
2022-09-20T08:17:24.662Z,80.33
2022-09-20T08:18:24.651Z,80.74
2022-09-20T08:19:24.651Z,80.84
2022-09-20T08:20:24.632Z,82.27
2022-09-20T08:21:24.613Z,80.33
2022-09-20T08:22:26.425Z,79.58
2022-09-20T08:23:24.598Z,78.80
2022-09-20T08:24:24.592Z,78.87
2022-09-20T08:25:24.598Z,81.52
2022-09-20T08:26:24.597Z,79.38
2022-09-20T08:27:24.550Z,79.58
2022-09-20T08:28:24.537Z,80.09
2022-09-20T08:29:24.527Z,80.80
2022-09-20T08:30:27.631Z,77.95
2022-09-20T08:31:24.578Z,79.68
2022-09-20T08:32:24.504Z,81.17
2022-09-20T08:33:24.498Z,79.14
2022-09-20T08:34:24.485Z,78.02
2022-09-20T08:35:24.475Z,79.54
2022-09-20T08:36:24.508Z,80.16
2022-09-20T08:37:24.443Z,76.79
2022-09-20T08:40:24.510Z,77.37
2022-09-20T08:41:24.958Z,75.74
2022-09-20T08:42:24.422Z,75.23
2022-09-20T08:43:24.407Z,75.02
2022-09-20T08:44:24.368Z,74.41
2022-09-20T08:45:34.597Z,76.76
2022-09-20T08:46:24.410Z,75.23
2022-09-20T08:47:24.337Z,77.67
2022-09-20T08:48:24.364Z,75.13
2022-09-20T08:49:24.317Z,76.04
2022-09-20T08:50:24.316Z,76.04
2022-09-20T08:51:24.310Z,77.17
2022-09-20T08:52:24.305Z,74.62
2022-09-20T08:53:24.279Z,77.57
2022-09-20T08:54:24.301Z,76.65
2022-09-20T08:55:24.255Z,75.84
2022-09-20T08:56:24.245Z,73.16
2022-09-20T08:57:24.231Z,74.48
2022-09-20T08:58:24.241Z,75.40
2022-09-20T08:59:24.261Z,75.09
2022-09-20T09:00:24.200Z,76.72
2022-09-20T09:01:24.259Z,75.40
2022-09-20T09:02:24.220Z,76.82
2022-09-20T09:03:24.161Z,73.16
2022-09-20T09:04:24.172Z,75.50
2022-09-20T09:05:24.144Z,73.77
2022-09-20T09:06:24.179Z,74.69
2022-09-20T09:07:24.152Z,74.38
2022-09-20T09:08:24.129Z,74.58
2022-09-20T09:09:24.109Z,73.97
2022-09-20T09:10:24.096Z,75.26
2022-09-20T09:11:24.100Z,74.96
2022-09-20T09:12:24.082Z,73.43
2022-09-20T09:13:24.067Z,74.35
2022-09-20T09:14:24.058Z,72.82
2022-09-20T09:15:24.038Z,73.23
2022-09-20T09:16:30.237Z,71.30
2022-09-20T09:17:27.390Z,74.55
2022-09-20T09:18:24.012Z,73.02
2022-09-20T09:19:24.254Z,73.02
2022-09-20T09:20:23.983Z,71.91
2022-09-20T09:21:23.975Z,73.43
2022-09-20T09:22:24.174Z,72.72
2022-09-20T09:23:23.957Z,74.62
2022-09-20T09:24:23.941Z,72.89
2022-09-20T09:25:23.944Z,70.65
2022-09-20T09:26:23.935Z,70.55
2022-09-20T09:27:23.927Z,70.96
2022-09-20T09:28:23.937Z,71.47
2022-09-20T09:29:23.897Z,72.28
2022-09-20T09:30:23.877Z,67.60
2022-09-20T09:31:23.923Z,68.32
2022-09-20T09:32:23.891Z,68.72
2022-09-20T09:33:23.843Z,68.38
2022-09-20T09:34:23.897Z,68.69
2022-09-20T09:35:23.839Z,69.91
2022-09-20T09:36:23.817Z,71.73
2022-09-20T09:37:28.279Z,68.89
2022-09-20T09:38:23.797Z,67.97
2022-09-20T09:39:23.783Z,70.62
2022-09-20T09:40:23.809Z,67.16
2022-09-20T09:41:23.758Z,70.11
2022-09-20T09:42:23.770Z,68.79
2022-09-20T09:43:23.750Z,67.88
2022-09-20T09:44:23.749Z,67.88
2022-09-20T09:45:23.711Z,67.24
2022-09-20T09:46:23.900Z,67.36
2022-09-20T09:47:23.698Z,67.77
2022-09-20T09:48:23.707Z,65.23
2022-09-20T09:49:23.683Z,65.03
2022-09-20T09:50:23.695Z,67.06
2022-09-20T09:51:23.673Z,66.35
2022-09-20T09:52:23.657Z,63.30
2022-09-20T09:53:23.656Z,66.76
2022-09-20T09:54:23.653Z,66.52
2022-09-20T09:55:23.627Z,65.20
2022-09-20T09:56:23.613Z,66.02
2022-09-20T09:57:23.593Z,67.44
2022-09-20T09:58:23.583Z,69.17
2022-09-20T09:59:23.574Z,67.24
2022-09-20T10:00:23.752Z,64.39
2022-09-20T10:01:23.635Z,62.66
2022-09-20T10:02:23.656Z,64.79
2022-09-20T10:03:23.529Z,66.39
2022-09-20T10:04:23.515Z,67.00
2022-09-20T10:05:23.522Z,64.36
2022-09-20T10:06:23.499Z,66.90
2022-09-20T10:07:23.521Z,65.37
2022-09-20T10:08:23.479Z,64.67
2022-09-20T10:09:23.455Z,65.07
2022-09-20T10:10:23.464Z,67.50
2022-09-20T10:11:23.461Z,62.91
2022-09-20T10:12:23.437Z,65.85
2022-09-20T10:13:23.434Z,66.97
2022-09-20T10:14:23.417Z,66.26
2022-09-20T10:15:23.408Z,61.90
2022-09-20T10:16:23.423Z,65.75
2022-09-20T10:17:23.401Z,63.82
2022-09-20T10:18:23.367Z,66.36
2022-09-20T10:19:23.373Z,63.82
2022-09-20T10:20:23.344Z,65.24
2022-09-20T10:21:23.331Z,66.05
2022-09-20T10:22:23.324Z,63.42
2022-09-20T10:24:23.317Z,66.56
2022-09-20T10:25:23.344Z,65.24
2022-09-20T10:26:23.563Z,65.55
2022-09-20T10:27:23.295Z,66.77
2022-09-20T10:28:23.266Z,65.55
2022-09-20T10:29:23.328Z,63.62
2022-09-20T10:30:23.239Z,66.16
2022-09-20T10:31:25.819Z,65.14
2022-09-20T10:32:23.218Z,66.86
2022-09-20T10:33:23.227Z,69.20
2022-09-20T10:34:23.198Z,65.65
2022-09-20T10:35:23.189Z,64.13
2022-09-20T10:36:23.174Z,63.72
2022-09-20T10:37:23.163Z,63.11
2022-09-20T10:38:23.160Z,63.62
2022-09-20T10:39:23.169Z,64.73
2022-09-20T10:40:23.901Z,62.68
2022-09-20T10:41:23.113Z,59.63
2022-09-20T10:42:23.127Z,61.05
2022-09-20T10:43:23.414Z,62.57
2022-09-20T10:44:23.102Z,60.62
2022-09-20T10:45:50.824Z,59.50
2022-09-20T10:46:38.489Z,61.74
2022-09-20T10:47:23.143Z,61.40
2022-09-20T10:48:23.051Z,58.97
2022-09-20T10:49:23.053Z,62.11
2022-09-20T10:50:23.213Z,62.52
2022-09-20T10:51:23.014Z,59.17
2022-09-20T10:52:23.025Z,60.36
2022-09-20T10:53:22.993Z,60.06
2022-09-20T10:54:22.991Z,58.54
2022-09-20T10:55:22.966Z,63.81
2022-09-20T10:56:23.109Z,59.25
2022-09-20T10:57:22.956Z,61.88
2022-09-20T10:58:22.938Z,58.20
2022-09-20T10:59:22.923Z,63.98
2022-09-20T11:00:22.938Z,62.86
2022-09-20T11:01:22.947Z,59.12
2022-09-20T11:02:22.972Z,58.61
2022-09-20T11:03:22.886Z,58.61
2022-09-20T11:04:22.869Z,57.60
2022-09-20T11:05:22.903Z,57.40
2022-09-20T11:06:22.859Z,62.05
2022-09-20T11:07:22.848Z,58.23
2022-09-20T11:08:22.899Z,59.85
2022-09-20T11:09:22.823Z,59.65
2022-09-20T11:10:22.806Z,57.12
2022-09-20T11:11:22.802Z,56.41
2022-09-20T11:12:22.800Z,58.13
2022-09-20T11:13:22.823Z,59.34
2022-09-20T11:14:23.142Z,59.45
2022-09-20T11:15:22.769Z,55.52
2022-09-20T11:16:22.793Z,55.32
2022-09-20T11:17:22.729Z,54.59
2022-09-20T11:18:22.735Z,63.81
2022-09-20T11:19:22.746Z,56.03
2022-09-20T11:20:22.712Z,55.02
2022-09-20T11:21:22.714Z,54.51
2022-09-20T11:22:22.687Z,56.92
2022-09-20T11:23:22.689Z,55.10
2022-09-20T11:24:22.697Z,59.14
2022-09-20T11:25:27.319Z,56.61
2022-09-20T11:26:22.666Z,56.51
2022-09-20T11:27:22.625Z,56.38
2022-09-20T11:28:22.622Z,56.99
2022-09-20T11:29:22.613Z,58.00
2022-09-20T11:30:22.590Z,55.77
2022-09-20T11:31:22.682Z,58.48
2022-09-20T11:32:22.573Z,56.36
2022-09-20T11:33:22.566Z,57.87
2022-09-20T11:34:22.555Z,56.36
2022-09-20T11:35:22.547Z,55.42
2022-09-20T11:36:22.538Z,56.13
2022-09-20T11:37:22.535Z,55.11
2022-09-20T11:38:22.511Z,56.02
2022-09-20T11:39:22.644Z,55.49
2022-09-20T11:40:22.647Z,57.92
2022-09-20T11:41:22.497Z,58.93
2022-09-20T11:42:22.478Z,58.91
2022-09-20T11:43:22.479Z,59.31
2022-09-20T11:44:22.454Z,56.98
2022-09-20T11:45:26.354Z,57.87
2022-09-20T11:46:22.485Z,57.06
2022-09-20T11:47:36.943Z,58.07
2022-09-20T11:48:22.413Z,62.01
2022-09-20T11:49:22.400Z,55.92
2022-09-20T11:50:22.373Z,58.85
2022-09-20T11:51:22.371Z,57.43
2022-09-20T11:52:22.371Z,58.75
2022-09-20T11:53:22.346Z,58.14
2022-09-20T11:54:22.354Z,59.45
2022-09-20T11:55:22.338Z,58.54
2022-09-20T11:56:22.306Z,61.27
2022-09-20T11:57:22.334Z,57.54
2022-09-20T11:58:22.289Z,61.40
2022-09-20T11:59:22.291Z,59.69
2022-09-20T12:00:22.267Z,61.80
2022-09-20T12:01:26.208Z,60.69
2022-09-20T12:02:22.396Z,62.71
2022-09-20T12:03:22.312Z,60.89
2022-09-20T12:04:32.391Z,61.53
2022-09-20T12:05:22.224Z,59.81
2022-09-20T12:06:22.363Z,62.04
2022-09-20T12:07:22.206Z,63.85
2022-09-20T12:08:22.216Z,61.03
2022-09-20T12:09:22.183Z,59.64
2022-09-20T12:10:22.169Z,57.52
2022-09-20T12:11:22.163Z,61.56
2022-09-20T12:12:22.166Z,60.85
2022-09-20T12:13:22.149Z,62.67
2022-09-20T12:14:22.131Z,65.20
2022-09-20T12:15:22.125Z,66.72
2022-09-20T12:16:22.114Z,65.70
2022-09-20T12:17:22.098Z,63.38
2022-09-20T12:18:22.097Z,65.91
2022-09-20T12:19:22.106Z,63.08
2022-09-20T12:20:22.055Z,59.34
2022-09-20T12:21:22.049Z,62.98
2022-09-20T12:22:22.035Z,61.16
2022-09-20T12:23:22.043Z,62.77
2022-09-20T12:24:22.042Z,61.90
2022-09-20T12:25:22.006Z,64.52
2022-09-20T12:26:22.003Z,64.83
2022-09-20T12:27:21.985Z,59.67
2022-09-20T12:28:21.982Z,65.73
2022-09-20T12:29:21.990Z,61.59
2022-09-20T12:30:21.952Z,60.10
2022-09-20T12:31:22.148Z,60.41
2022-09-20T12:32:21.931Z,60.30
2022-09-20T12:33:21.926Z,59.49
2022-09-20T12:34:21.937Z,56.18
2022-09-20T12:35:21.908Z,61.55
2022-09-20T12:36:21.925Z,60.03
2022-09-20T12:37:21.913Z,61.55
2022-09-20T12:38:21.863Z,63.67
2022-09-20T12:39:26.337Z,58.92
2022-09-20T12:40:21.941Z,61.65
2022-09-20T12:41:28.229Z,61.44
2022-09-20T12:42:21.832Z,59.14
2022-09-20T12:43:21.818Z,61.27
2022-09-20T12:44:21.812Z,63.02
2022-09-20T12:45:21.807Z,64.54
2022-09-20T12:46:21.835Z,65.39
2022-09-20T12:47:21.776Z,68.02
2022-09-20T12:48:21.762Z,68.32
2022-09-20T12:49:21.780Z,69.54
2022-09-20T12:50:21.752Z,68.52
2022-09-20T12:51:21.757Z,67.44
2022-09-20T12:52:21.712Z,66.02
2022-09-20T12:53:21.721Z,70.18
2022-09-20T12:54:21.713Z,71.20
2022-09-20T12:55:21.686Z,69.37
2022-09-20T12:56:21.702Z,70.08
2022-09-20T12:57:21.702Z,71.80
2022-09-20T12:58:21.659Z,69.68
2022-09-20T12:59:21.651Z,72.11
2022-09-20T13:00:21.637Z,71.00
2022-09-20T13:01:21.779Z,71.53
2022-09-20T13:02:21.675Z,70.21
2022-09-20T13:03:21.628Z,69.51
2022-09-20T13:04:21.590Z,71.13
2022-09-20T13:05:21.677Z,70.83
2022-09-20T13:06:21.571Z,69.60
2022-09-20T13:07:21.558Z,71.84
2022-09-20T13:08:21.560Z,69.30
2022-09-20T13:09:21.559Z,69.81
2022-09-20T13:10:21.522Z,71.94
2022-09-20T13:11:21.534Z,70.32
2022-09-20T13:12:21.499Z,68.70
2022-09-20T13:13:21.486Z,71.16
2022-09-20T13:14:21.497Z,68.62
2022-09-20T13:15:21.488Z,70.65
2022-09-20T13:16:21.492Z,70.04
2022-09-20T13:17:21.472Z,66.80
2022-09-20T13:18:21.436Z,68.32
2022-09-20T13:19:21.541Z,70.25
2022-09-20T13:20:22.248Z,68.83
2022-09-20T13:21:21.404Z,71.88
2022-09-20T13:22:21.413Z,68.08
2022-09-20T13:23:21.425Z,69.00
2022-09-20T13:24:21.983Z,68.39
2022-09-20T13:25:21.377Z,68.08
2022-09-20T13:26:21.373Z,66.43
2022-09-20T13:27:21.401Z,66.23
2022-09-20T13:28:21.512Z,65.48
2022-09-20T13:29:21.315Z,68.93
2022-09-20T13:30:21.304Z,66.37
2022-09-20T13:31:21.388Z,66.06
2022-09-20T13:32:21.290Z,67.55
2022-09-20T13:33:21.297Z,65.93
2022-09-20T13:34:21.267Z,63.87
2022-09-20T13:35:21.281Z,62.96
2022-09-20T13:36:21.248Z,63.67
2022-09-20T13:37:21.262Z,62.02
2022-09-20T13:38:21.238Z,63.34
2022-09-20T13:39:21.444Z,62.63
2022-09-20T13:40:21.276Z,64.73
2022-09-20T13:41:21.202Z,64.02
2022-09-20T13:42:21.179Z,63.41
2022-09-20T13:43:24.003Z,62.57
2022-09-20T13:44:21.155Z,61.96
2022-09-20T13:45:21.174Z,66.31
2022-09-20T13:46:21.277Z,64.29
2022-09-20T13:47:21.127Z,63.38
2022-09-20T13:48:21.127Z,61.03
2022-09-20T13:49:21.127Z,63.25
2022-09-20T13:50:21.107Z,59.21
2022-09-20T13:51:21.088Z,59.81
2022-09-20T13:52:21.078Z,60.60
2022-09-20T13:53:39.797Z,60.60
2022-09-20T13:54:21.052Z,59.69
2022-09-20T13:55:21.055Z,58.95
2022-09-20T13:56:21.030Z,62.59
2022-09-20T13:57:21.026Z,60.16
2022-09-20T13:58:21.029Z,61.44
2022-09-20T13:59:21.043Z,60.24
2022-09-20T14:00:20.981Z,57.10
2022-09-20T14:01:21.033Z,59.33
2022-09-20T14:02:21.090Z,61.82
2022-09-20T14:03:20.958Z,58.80
2022-09-20T14:04:20.949Z,58.19
2022-09-20T14:05:20.970Z,59.20
2022-09-20T14:06:20.929Z,62.32
2022-09-20T14:07:20.954Z,58.76
2022-09-20T14:08:20.921Z,58.06
2022-09-20T14:09:20.894Z,59.07
2022-09-20T14:10:20.891Z,59.88
2022-09-20T14:11:20.877Z,58.16
2022-09-20T14:12:20.907Z,61.66
2022-09-20T14:13:20.863Z,58.87
2022-09-20T14:14:22.293Z,57.32
2022-09-20T14:15:20.833Z,56.92
2022-09-20T14:16:20.839Z,56.62
2022-09-20T14:17:20.847Z,56.82
2022-09-20T14:18:20.836Z,55.71
2022-09-20T14:19:20.894Z,56.52
2022-09-20T14:20:20.772Z,59.55
2022-09-20T14:21:20.778Z,59.34
2022-09-20T14:22:21.587Z,58.94
2022-09-20T14:23:20.752Z,57.93
2022-09-20T14:24:20.749Z,60.05
2022-09-20T14:25:20.770Z,59.34
2022-09-20T14:26:20.707Z,57.73
2022-09-20T14:27:20.695Z,58.94
2022-09-20T14:28:20.692Z,60.35
2022-09-20T14:29:20.689Z,58.14
2022-09-20T14:30:20.693Z,61.66
2022-09-20T14:31:20.703Z,59.27
2022-09-20T14:32:20.650Z,58.06
2022-09-20T14:33:20.643Z,56.04
2022-09-20T14:34:20.626Z,58.87
2022-09-20T14:35:20.618Z,59.67
2022-09-20T14:36:20.602Z,57.65
2022-09-20T14:37:20.624Z,59.07
2022-09-20T14:38:20.692Z,58.06
2022-09-20T14:39:20.707Z,59.88
2022-09-20T14:40:20.597Z,56.35
2022-09-20T14:41:20.547Z,55.57
2022-09-20T14:42:20.998Z,56.88
2022-09-20T14:43:20.616Z,56.27
2022-09-20T14:44:20.546Z,60.51
2022-09-20T14:45:20.569Z,57.28
2022-09-20T14:46:20.498Z,57.10
2022-09-20T14:47:20.491Z,57.61
2022-09-20T14:48:20.488Z,56.90
2022-09-20T14:49:20.466Z,58.82
2022-09-20T14:50:20.452Z,55.69
2022-09-20T14:51:20.461Z,56.93
2022-09-20T14:52:20.434Z,57.54
2022-09-20T14:53:20.435Z,56.73
2022-09-20T14:54:20.409Z,56.23
2022-09-20T14:55:20.401Z,57.06
2022-09-20T14:56:20.389Z,56.45
2022-09-20T14:57:20.379Z,57.36
2022-09-20T14:58:20.369Z,58.37
2022-09-20T14:59:20.377Z,58.87
2022-09-20T15:00:20.355Z,54.74
2022-09-20T15:01:20.362Z,56.83
2022-09-20T15:02:20.350Z,56.52
2022-09-20T15:03:20.333Z,55.32
2022-09-20T15:04:20.302Z,53.20
2022-09-20T15:05:20.336Z,53.98
2022-09-20T15:06:20.309Z,51.96
2022-09-20T15:07:20.280Z,52.74
2022-09-20T15:08:20.281Z,55.66
2022-09-20T15:09:20.268Z,54.05
2022-09-20T15:10:20.260Z,55.57
2022-09-20T15:11:20.240Z,53.14
2022-09-20T15:12:20.253Z,52.44
2022-09-20T15:13:20.209Z,54.36
2022-09-20T15:14:20.200Z,52.14
2022-09-20T15:15:20.194Z,52.24
2022-09-20T15:16:20.190Z,52.74
2022-09-20T15:17:20.257Z,54.46
2022-09-20T15:18:20.176Z,54.66
2022-09-20T15:19:20.147Z,53.96
2022-09-20T15:20:24.036Z,57.18
2022-09-20T15:21:20.145Z,55.26
2022-09-20T15:22:20.105Z,55.66
2022-09-20T15:23:20.130Z,54.05
2022-09-20T15:24:20.088Z,55.36
2022-09-20T15:25:20.071Z,53.45
2022-09-20T15:26:20.085Z,52.04
2022-09-20T15:27:20.099Z,52.31
2022-09-20T15:28:20.046Z,52.11
2022-09-20T15:29:20.055Z,55.44
2022-09-20T15:30:20.065Z,56.35
2022-09-20T15:31:20.080Z,56.35
2022-09-20T15:32:20.030Z,56.55
2022-09-20T15:33:19.997Z,53.42
2022-09-20T15:34:19.994Z,51.99
2022-09-20T15:35:19.994Z,52.49
2022-09-20T15:36:19.964Z,51.79
2022-09-20T15:37:19.956Z,51.36
2022-09-20T15:38:19.934Z,51.23
2022-09-20T15:39:19.933Z,51.84
2022-09-20T15:40:19.986Z,50.53
2022-09-20T15:41:19.909Z,51.51
2022-09-20T15:42:19.894Z,52.22
2022-09-20T15:43:19.891Z,50.08
2022-09-20T15:44:19.901Z,55.51
2022-09-20T15:45:19.882Z,51.56
2022-09-20T15:46:19.881Z,50.86
2022-09-20T15:47:19.844Z,49.63
2022-09-20T15:48:19.831Z,48.60
2022-09-20T15:49:19.825Z,50.51
2022-09-20T15:50:19.811Z,50.99
2022-09-20T15:51:19.815Z,49.68
2022-09-20T15:52:19.809Z,48.25
2022-09-20T15:53:19.784Z,50.56
2022-09-20T15:54:19.773Z,50.76
2022-09-20T15:55:19.768Z,47.85
2022-09-20T15:56:19.805Z,51.94
2022-09-20T15:57:19.781Z,54.05
2022-09-20T15:58:19.759Z,54.05
2022-09-20T15:59:19.724Z,48.03
2022-09-20T16:00:19.707Z,51.14
2022-09-20T16:01:19.756Z,51.94
2022-09-20T16:02:19.736Z,52.55
2022-09-20T16:03:19.689Z,49.74
2022-09-20T16:04:19.667Z,47.53
2022-09-20T16:05:19.659Z,49.96
2022-09-20T16:06:19.647Z,51.06
2022-09-20T16:07:19.645Z,48.70
2022-09-20T16:08:19.623Z,49.05
2022-09-20T16:09:19.634Z,51.49
2022-09-20T16:10:19.634Z,55.46
2022-09-20T16:11:22.666Z,54.18
2022-09-20T16:12:19.617Z,49.97
2022-09-20T16:13:19.607Z,50.80
2022-09-20T16:14:19.629Z,52.92
2022-09-20T16:15:19.603Z,56.17
2022-09-20T16:16:20.302Z,55.29
2022-09-20T16:17:19.520Z,55.49
2022-09-20T16:18:19.524Z,54.71
2022-09-20T16:19:19.500Z,53.12
2022-09-20T16:20:19.537Z,55.87
2022-09-20T16:21:19.502Z,53.34
2022-09-20T16:22:19.503Z,57.49
2022-09-20T16:23:24.083Z,54.08
2022-09-20T16:24:19.478Z,57.31
2022-09-20T16:25:19.430Z,56.51
2022-09-20T16:26:19.443Z,57.21
2022-09-20T16:27:19.411Z,58.45
2022-09-20T16:28:19.435Z,55.73
2022-09-20T16:29:19.394Z,58.96
2022-09-20T16:30:19.449Z,59.06
2022-09-20T16:31:19.413Z,57.95
2022-09-20T16:32:19.417Z,59.56
2022-09-20T16:33:19.378Z,63.10
2022-09-20T16:34:19.367Z,59.67
2022-09-20T16:35:19.332Z,60.58
2022-09-20T16:36:19.343Z,58.05
2022-09-20T16:37:19.310Z,56.86
2022-09-20T16:38:19.303Z,60.10
2022-09-20T16:39:19.286Z,56.96
2022-09-20T16:40:19.344Z,59.39
2022-09-20T16:41:19.315Z,58.78
2022-09-20T16:42:19.289Z,58.99
2022-09-20T16:43:19.249Z,59.70
2022-09-20T16:44:19.243Z,59.49
2022-09-20T16:45:19.221Z,59.63
2022-09-20T16:46:19.213Z,60.74
2022-09-20T16:47:19.226Z,58.11
2022-09-20T16:48:19.212Z,62.46
2022-09-20T16:49:19.199Z,58.71